createdAt,value
2017-08-10T00:01:31.654Z,19.11
2017-08-10T00:03:59.077Z,18.98
2017-08-10T00:06:26.475Z,18.88
2017-08-10T00:08:53.876Z,18.78
2017-08-10T00:11:21.287Z,18.71
2017-08-10T00:13:48.685Z,18.64
2017-08-10T00:16:16.084Z,18.59
2017-08-10T00:18:43.494Z,18.61
2017-08-10T00:21:10.904Z,18.57
2017-08-10T00:23:38.303Z,18.57
2017-08-10T00:26:05.715Z,18.56
2017-08-10T00:28:33.134Z,18.30
2017-08-10T00:31:00.535Z,18.21
2017-08-10T00:33:27.947Z,18.13
2017-08-10T00:35:55.353Z,18.03
2017-08-10T00:38:22.760Z,18.01
2017-08-10T00:40:50.171Z,17.96
2017-08-10T00:43:17.572Z,17.96
2017-08-10T00:45:44.966Z,17.99
2017-08-10T00:48:12.390Z,18.00
2017-08-10T00:50:39.800Z,18.04
2017-08-10T00:53:07.259Z,17.98
2017-08-10T00:55:34.682Z,17.90
2017-08-10T00:58:02.092Z,17.85
2017-08-10T01:00:29.487Z,17.88
2017-08-10T01:02:56.899Z,17.83
2017-08-10T01:05:24.302Z,17.86
2017-08-10T01:07:51.702Z,17.74
2017-08-10T01:10:19.130Z,17.65
2017-08-10T01:12:46.522Z,17.60
2017-08-10T01:15:13.927Z,17.54
2017-08-10T01:17:41.344Z,17.50
2017-08-10T01:20:08.743Z,17.50
2017-08-10T01:22:36.140Z,17.50
2017-08-10T01:25:03.549Z,17.49
2017-08-10T01:27:30.947Z,17.27
2017-08-10T01:29:58.349Z,17.11
2017-08-10T01:32:25.759Z,17.12
2017-08-10T01:34:53.159Z,17.10
2017-08-10T01:37:20.579Z,17.17
2017-08-10T01:39:48.003Z,17.15
2017-08-10T01:42:15.404Z,17.09
2017-08-10T01:44:42.802Z,17.09
2017-08-10T01:47:10.207Z,17.13
2017-08-10T01:49:37.613Z,17.07
2017-08-10T01:52:05.012Z,17.07
2017-08-10T01:54:32.431Z,17.05
2017-08-10T01:56:59.832Z,17.02
2017-08-10T01:59:27.241Z,17.01
2017-08-10T02:01:54.651Z,17.01
2017-08-10T02:04:22.053Z,16.94
2017-08-10T02:06:49.459Z,16.73
2017-08-10T02:09:16.878Z,16.67
2017-08-10T02:11:44.263Z,16.56
2017-08-10T02:14:11.661Z,16.46
2017-08-10T02:16:39.079Z,16.38
2017-08-10T02:19:06.475Z,16.34
2017-08-10T02:21:33.881Z,16.31
2017-08-10T02:24:01.289Z,16.27
2017-08-10T02:26:28.683Z,16.25
2017-08-10T02:28:56.085Z,16.19
2017-08-10T02:31:23.499Z,16.10
2017-08-10T02:33:50.896Z,16.12
2017-08-10T02:36:18.307Z,16.11
2017-08-10T02:38:45.735Z,16.05
2017-08-10T02:41:13.123Z,16.09
2017-08-10T02:43:40.533Z,16.07
2017-08-10T02:46:07.943Z,16.05
2017-08-10T02:48:35.347Z,16.04
2017-08-10T02:51:02.752Z,16.03
2017-08-10T02:53:30.175Z,16.06
2017-08-10T02:55:57.594Z,16.05
2017-08-10T02:58:24.994Z,16.07
2017-08-10T03:00:52.407Z,16.08
2017-08-10T03:03:19.807Z,16.10
2017-08-10T03:05:47.202Z,16.17
2017-08-10T03:08:14.759Z,16.16
2017-08-10T03:10:42.168Z,16.13
2017-08-10T03:13:09.578Z,16.16
2017-08-10T03:15:36.991Z,16.18
2017-08-10T03:18:04.387Z,16.14
2017-08-10T03:20:31.784Z,16.14
2017-08-10T03:22:59.199Z,16.13
2017-08-10T03:25:26.600Z,16.23
2017-08-10T03:27:53.998Z,16.18
2017-08-10T03:30:21.409Z,16.22
2017-08-10T03:32:48.813Z,16.30
2017-08-10T03:35:16.215Z,16.39
2017-08-10T03:37:43.623Z,16.38
2017-08-10T03:40:11.036Z,16.38
2017-08-10T03:42:38.437Z,16.31
2017-08-10T03:45:05.851Z,16.35
2017-08-10T03:47:33.251Z,16.39
2017-08-10T03:50:00.676Z,16.45
2017-08-10T03:52:28.063Z,16.48
2017-08-10T03:54:55.467Z,16.42
2017-08-10T03:57:22.866Z,16.45
2017-08-10T03:59:50.279Z,16.44
2017-08-10T04:02:17.678Z,16.52
2017-08-10T04:04:45.079Z,16.61
2017-08-10T04:07:12.496Z,16.68
2017-08-10T04:09:39.896Z,16.76
2017-08-10T04:12:07.292Z,16.79
2017-08-10T04:14:34.738Z,16.81
2017-08-10T04:17:02.139Z,16.82
2017-08-10T04:19:29.544Z,16.84
2017-08-10T04:21:56.959Z,16.84
2017-08-10T04:24:24.367Z,16.87
2017-08-10T04:26:51.764Z,16.89
2017-08-10T04:29:19.188Z,16.87
2017-08-10T04:31:46.587Z,16.89
2017-08-10T04:34:13.983Z,16.92
2017-08-10T04:36:41.393Z,16.93
2017-08-10T04:39:08.802Z,16.93
2017-08-10T04:41:36.199Z,16.96
2017-08-10T04:44:03.628Z,16.97
2017-08-10T04:46:31.028Z,16.98
2017-08-10T04:48:58.424Z,16.97
2017-08-10T04:51:25.844Z,16.97
2017-08-10T04:53:53.234Z,17.00
2017-08-10T04:56:20.644Z,16.99
2017-08-10T04:58:48.062Z,16.99
2017-08-10T05:01:15.458Z,17.00
2017-08-10T05:03:42.858Z,17.00
2017-08-10T05:06:10.274Z,17.05
2017-08-10T05:08:37.666Z,17.04
2017-08-10T05:11:05.066Z,17.05
2017-08-10T05:13:32.493Z,17.07
2017-08-10T05:15:59.915Z,17.10
2017-08-10T05:18:27.308Z,17.09
2017-08-10T05:20:54.728Z,17.08
2017-08-10T05:23:22.126Z,17.06
2017-08-10T05:25:49.523Z,17.07
2017-08-10T05:28:16.937Z,17.08
2017-08-10T05:30:44.346Z,17.08
2017-08-10T05:33:11.738Z,17.06
2017-08-10T05:35:39.173Z,17.00
2017-08-10T05:38:06.582Z,17.00
2017-08-10T05:40:33.974Z,16.98
2017-08-10T05:43:01.386Z,17.01
2017-08-10T05:45:28.790Z,17.08
2017-08-10T05:47:56.188Z,17.09
2017-08-10T05:50:23.612Z,17.11
2017-08-10T05:52:51.027Z,17.11
2017-08-10T05:55:18.431Z,17.16
2017-08-10T05:57:45.859Z,17.17
2017-08-10T06:00:13.261Z,17.20
2017-08-10T06:02:40.672Z,17.21
2017-08-10T06:05:08.088Z,17.21
2017-08-10T06:07:35.486Z,17.19
2017-08-10T06:10:02.887Z,17.20
2017-08-10T06:12:30.304Z,17.21
2017-08-10T06:14:57.699Z,17.21
2017-08-10T06:17:25.098Z,17.19
2017-08-10T06:19:52.536Z,17.17
2017-08-10T06:22:19.936Z,17.18
2017-08-10T06:24:47.331Z,17.21
2017-08-10T06:27:14.746Z,17.25
2017-08-10T06:29:42.152Z,17.28
2017-08-10T06:32:09.551Z,17.33
2017-08-10T06:34:36.971Z,17.34
2017-08-10T06:37:04.367Z,17.35
2017-08-10T06:39:31.775Z,17.21
2017-08-10T06:41:59.186Z,16.99
2017-08-10T06:44:26.584Z,16.92
2017-08-10T06:46:53.987Z,16.84
2017-08-10T06:49:21.396Z,16.82
2017-08-10T06:51:48.791Z,16.87
2017-08-10T06:54:16.196Z,16.84
2017-08-10T06:56:43.622Z,16.94
2017-08-10T06:59:11.019Z,17.07
2017-08-10T07:01:38.420Z,17.19
2017-08-10T07:04:05.835Z,17.20
2017-08-10T07:06:33.235Z,17.27
2017-08-10T07:09:00.640Z,17.35
2017-08-10T07:11:28.087Z,17.46
2017-08-10T07:13:55.488Z,17.49
2017-08-10T07:16:22.884Z,17.53
2017-08-10T07:18:50.299Z,17.58
2017-08-10T07:21:17.698Z,17.51
2017-08-10T07:23:45.103Z,17.49
2017-08-10T07:26:12.510Z,17.45
2017-08-10T07:28:39.907Z,17.50
2017-08-10T07:31:07.312Z,17.53
2017-08-10T07:33:34.727Z,17.56
2017-08-10T07:36:02.122Z,17.55
2017-08-10T07:38:29.523Z,17.57
2017-08-10T07:40:56.939Z,17.58
2017-08-10T07:43:24.331Z,17.59
2017-08-10T07:45:51.735Z,17.58
2017-08-10T07:48:19.153Z,17.62
2017-08-10T07:50:46.552Z,17.63
2017-08-10T07:53:13.946Z,17.66
2017-08-10T07:55:41.363Z,17.69
2017-08-10T07:58:08.767Z,17.82
2017-08-10T08:00:36.175Z,17.88
2017-08-10T08:03:03.591Z,17.96
2017-08-10T08:05:30.990Z,18.06
2017-08-10T08:07:58.396Z,18.17
2017-08-10T08:10:25.816Z,18.23
2017-08-10T08:12:53.215Z,18.31
2017-08-10T08:15:20.615Z,18.40
2017-08-10T08:17:48.023Z,18.45
2017-08-10T08:20:15.423Z,18.48
2017-08-10T08:22:42.827Z,18.56
2017-08-10T08:25:10.246Z,18.65
2017-08-10T08:27:37.647Z,18.66
2017-08-10T08:30:05.043Z,18.80
2017-08-10T08:32:32.461Z,18.95
2017-08-10T08:34:59.864Z,19.02
2017-08-10T08:37:27.259Z,19.06
2017-08-10T08:39:54.663Z,19.10
2017-08-10T08:42:22.058Z,19.17
2017-08-10T08:44:49.460Z,19.24
2017-08-10T08:47:16.875Z,19.28
2017-08-10T08:49:44.275Z,19.30
2017-08-10T08:52:11.679Z,19.41
2017-08-10T08:54:39.086Z,19.42
2017-08-10T08:57:06.484Z,19.41
2017-08-10T08:59:33.884Z,19.31
2017-08-10T09:02:01.300Z,19.17
2017-08-10T09:04:28.703Z,19.16
2017-08-10T09:06:56.103Z,19.15
2017-08-10T09:09:23.523Z,19.19
2017-08-10T09:11:50.918Z,19.22
2017-08-10T09:14:18.324Z,19.20
2017-08-10T09:16:45.756Z,19.24
2017-08-10T09:19:13.159Z,19.29
2017-08-10T09:21:40.551Z,19.36
2017-08-10T09:24:07.972Z,19.40
2017-08-10T09:26:35.371Z,19.36
2017-08-10T09:29:02.774Z,19.36
2017-08-10T09:31:30.183Z,19.36
2017-08-10T09:33:57.585Z,19.36
2017-08-10T09:36:24.984Z,19.28
2017-08-10T09:38:52.401Z,19.27
2017-08-10T09:41:19.800Z,19.30
2017-08-10T09:43:47.203Z,19.32
2017-08-10T09:46:14.695Z,19.33
2017-08-10T09:48:42.079Z,19.39
2017-08-10T09:51:09.480Z,19.45
2017-08-10T09:53:36.890Z,19.54
2017-08-10T09:56:04.286Z,19.52
2017-08-10T09:58:31.695Z,19.53
2017-08-10T10:00:59.111Z,19.59
2017-08-10T10:03:26.519Z,19.62
2017-08-10T10:05:53.915Z,19.66
2017-08-10T10:08:21.335Z,19.75
2017-08-10T10:10:48.731Z,19.76
2017-08-10T10:13:16.127Z,19.75
2017-08-10T10:15:43.547Z,19.66
2017-08-10T10:18:10.943Z,19.60
2017-08-10T10:20:38.344Z,19.52
2017-08-10T10:23:05.756Z,19.53
2017-08-10T10:25:33.154Z,19.52
2017-08-10T10:28:00.546Z,19.57
2017-08-10T10:30:27.963Z,19.52
2017-08-10T10:32:55.371Z,19.46
2017-08-10T10:35:22.770Z,19.47
2017-08-10T10:37:50.184Z,19.56
2017-08-10T10:40:17.583Z,19.60
2017-08-10T10:42:44.978Z,19.46
2017-08-10T10:45:12.403Z,19.32
2017-08-10T10:47:39.807Z,19.34
2017-08-10T10:50:07.200Z,19.34
2017-08-10T10:52:34.618Z,19.31
2017-08-10T10:55:02.020Z,19.30
2017-08-10T10:57:29.422Z,19.31
2017-08-10T10:59:56.828Z,19.29
2017-08-10T11:02:24.227Z,19.23
2017-08-10T11:04:51.631Z,19.12
2017-08-10T11:07:19.042Z,19.12
2017-08-10T11:09:46.445Z,19.09
2017-08-10T11:12:13.839Z,19.04
2017-08-10T11:14:41.262Z,19.14
2017-08-10T11:17:08.663Z,19.20
2017-08-10T11:19:36.072Z,19.22
2017-08-10T11:22:03.485Z,19.11
2017-08-10T11:24:30.887Z,19.17
2017-08-10T11:26:58.288Z,19.17
2017-08-10T11:29:25.696Z,19.13
2017-08-10T11:31:53.095Z,19.11
2017-08-10T11:34:20.499Z,19.05
2017-08-10T11:36:47.914Z,18.97
2017-08-10T11:39:15.315Z,19.09
2017-08-10T11:41:42.715Z,19.07
2017-08-10T11:44:10.127Z,19.02
2017-08-10T11:46:37.557Z,18.94
2017-08-10T11:49:04.959Z,18.87
2017-08-10T11:51:32.383Z,18.94
2017-08-10T11:53:59.783Z,18.97
2017-08-10T11:56:27.185Z,19.05
2017-08-10T11:58:54.603Z,19.10
2017-08-10T12:01:22.003Z,19.17
2017-08-10T12:03:49.395Z,19.18
2017-08-10T12:06:16.815Z,19.25
2017-08-10T12:08:44.212Z,19.25
2017-08-10T12:11:11.621Z,19.36
2017-08-10T12:13:39.034Z,19.50
2017-08-10T12:16:06.440Z,19.48
2017-08-10T12:18:33.852Z,19.53
2017-08-10T12:21:01.270Z,19.50
2017-08-10T12:23:28.667Z,19.45
2017-08-10T12:25:56.887Z,19.47
2017-08-10T12:28:24.331Z,19.38
2017-08-10T12:30:51.724Z,19.47
2017-08-10T12:33:19.131Z,19.39
2017-08-10T12:35:46.548Z,19.21
2017-08-10T12:38:13.944Z,19.05
2017-08-10T12:40:41.348Z,19.02
2017-08-10T12:43:08.755Z,18.96
2017-08-10T12:45:36.155Z,19.16
2017-08-10T12:48:03.559Z,19.29
2017-08-10T12:50:30.972Z,19.47
2017-08-10T12:52:58.375Z,19.52
2017-08-10T12:55:25.787Z,19.60
2017-08-10T12:57:53.210Z,19.64
2017-08-10T13:00:20.618Z,19.70
2017-08-10T13:02:48.015Z,19.76
2017-08-10T13:05:15.436Z,19.84
2017-08-10T13:07:42.847Z,19.89
2017-08-10T13:10:10.246Z,19.99
2017-08-10T13:12:37.660Z,20.08
2017-08-10T13:15:05.063Z,20.12
2017-08-10T13:17:32.460Z,20.16
2017-08-10T13:19:59.880Z,20.09
2017-08-10T13:22:27.274Z,19.94
2017-08-10T13:24:54.683Z,19.87
2017-08-10T13:27:22.103Z,19.95
2017-08-10T13:29:49.511Z,20.11
2017-08-10T13:32:16.920Z,20.15
2017-08-10T13:34:44.703Z,20.01
2017-08-10T13:37:12.102Z,19.90
2017-08-10T13:39:39.499Z,19.65
2017-08-10T13:42:06.918Z,19.51
2017-08-10T13:44:34.317Z,19.55
2017-08-10T13:47:01.715Z,19.48
2017-08-10T13:49:29.139Z,19.43
2017-08-10T13:51:56.534Z,19.47
2017-08-10T13:54:23.939Z,19.42
2017-08-10T13:56:51.351Z,19.46
2017-08-10T13:59:18.760Z,19.40
2017-08-10T14:01:46.161Z,19.24
2017-08-10T14:04:13.587Z,19.18
2017-08-10T14:06:40.987Z,19.24
2017-08-10T14:09:08.391Z,19.30
2017-08-10T14:11:35.809Z,19.30
2017-08-10T14:14:03.203Z,19.25
2017-08-10T14:16:30.607Z,19.27
2017-08-10T14:18:58.022Z,19.30
2017-08-10T14:21:25.429Z,19.37
2017-08-10T14:23:52.831Z,19.47
2017-08-10T14:26:20.245Z,19.58
2017-08-10T14:28:47.638Z,19.62
2017-08-10T14:31:15.048Z,19.57
2017-08-10T14:33:42.463Z,19.56
2017-08-10T14:36:09.864Z,19.59
2017-08-10T14:38:37.264Z,19.49
2017-08-10T14:41:04.676Z,19.59
2017-08-10T14:43:32.079Z,19.63
2017-08-10T14:45:59.479Z,19.53
2017-08-10T14:48:26.895Z,19.42
2017-08-10T14:50:54.296Z,19.36
2017-08-10T14:53:21.712Z,19.20
2017-08-10T14:55:49.123Z,19.03
2017-08-10T14:58:16.523Z,18.97
2017-08-10T15:00:43.927Z,18.93
2017-08-10T15:03:11.339Z,18.77
2017-08-10T15:05:38.743Z,18.73
2017-08-10T15:08:06.155Z,18.70
2017-08-10T15:10:33.574Z,18.61
2017-08-10T15:13:00.991Z,18.58
2017-08-10T15:15:28.395Z,18.61
2017-08-10T15:17:55.815Z,18.63
2017-08-10T15:20:23.222Z,18.65
2017-08-10T15:22:50.630Z,18.59
2017-08-10T15:25:18.052Z,18.44
2017-08-10T15:27:45.455Z,18.33
2017-08-10T15:30:12.855Z,18.15
2017-08-10T15:32:40.280Z,18.14
2017-08-10T15:35:07.675Z,18.12
2017-08-10T15:37:35.075Z,18.06
2017-08-10T15:40:02.494Z,18.02
2017-08-10T15:42:29.894Z,17.94
2017-08-10T15:44:57.292Z,17.86
2017-08-10T15:47:24.702Z,17.84
2017-08-10T15:49:52.108Z,17.83
2017-08-10T15:52:19.507Z,17.69
2017-08-10T15:54:46.974Z,17.63
2017-08-10T15:57:14.379Z,17.67
2017-08-10T15:59:41.779Z,17.67
2017-08-10T16:02:09.198Z,17.72
2017-08-10T16:04:36.597Z,17.72
2017-08-10T16:07:03.998Z,17.72
2017-08-10T16:09:31.418Z,17.68
2017-08-10T16:11:58.841Z,17.70
2017-08-10T16:14:26.242Z,17.68
2017-08-10T16:16:53.671Z,17.62
2017-08-10T16:19:21.080Z,17.68
2017-08-10T16:21:48.483Z,17.64
2017-08-10T16:24:15.914Z,17.56
2017-08-10T16:26:43.307Z,17.58
2017-08-10T16:29:10.736Z,17.67
2017-08-10T16:31:38.150Z,17.74
2017-08-10T16:34:05.547Z,17.72
2017-08-10T16:36:32.946Z,17.69
2017-08-10T16:39:00.356Z,17.70
2017-08-10T16:41:27.768Z,17.71
2017-08-10T16:43:55.171Z,17.69
2017-08-10T16:46:22.594Z,17.72
2017-08-10T16:48:50.004Z,17.71
2017-08-10T16:51:17.399Z,17.67
2017-08-10T16:53:44.811Z,17.64
2017-08-10T16:56:12.210Z,17.59
2017-08-10T16:58:39.615Z,17.57
2017-08-10T17:01:07.033Z,17.60
2017-08-10T17:03:34.440Z,17.64
2017-08-10T17:06:01.844Z,17.62
2017-08-10T17:08:29.263Z,17.65
2017-08-10T17:10:56.671Z,17.72
2017-08-10T17:13:24.075Z,17.67
2017-08-10T17:15:51.483Z,17.55
2017-08-10T17:18:18.878Z,17.48
2017-08-10T17:20:46.288Z,17.42
2017-08-10T17:23:13.708Z,17.32
2017-08-10T17:25:41.113Z,17.26
2017-08-10T17:28:08.508Z,17.18
2017-08-10T17:30:35.933Z,17.14
2017-08-10T17:33:03.331Z,17.19
2017-08-10T17:35:30.727Z,17.30
2017-08-10T17:37:58.147Z,17.29
2017-08-10T17:40:25.554Z,17.21
2017-08-10T17:42:52.952Z,17.17
2017-08-10T17:45:20.369Z,17.09
2017-08-10T17:47:47.767Z,17.05
2017-08-10T17:50:15.163Z,16.99
2017-08-10T17:52:42.590Z,16.94
2017-08-10T17:55:09.996Z,16.90
2017-08-10T17:57:37.397Z,16.84
2017-08-10T18:00:04.955Z,16.88
2017-08-10T18:02:32.354Z,16.90
2017-08-10T18:04:59.759Z,16.89
2017-08-10T18:07:27.167Z,16.89
2017-08-10T18:09:54.571Z,17.02
2017-08-10T18:12:21.970Z,17.07
2017-08-10T18:14:49.387Z,17.18
2017-08-10T18:17:16.792Z,17.17
2017-08-10T18:19:44.191Z,17.15
2017-08-10T18:22:11.600Z,17.21
2017-08-10T18:24:38.999Z,17.24
2017-08-10T18:27:06.399Z,17.30
2017-08-10T18:29:33.810Z,17.32
2017-08-10T18:32:01.213Z,17.29
2017-08-10T18:34:28.622Z,17.21
2017-08-10T18:36:56.044Z,17.18
2017-08-10T18:39:23.443Z,17.20
2017-08-10T18:41:50.850Z,17.23
2017-08-10T18:44:18.264Z,17.24
2017-08-10T18:46:45.667Z,17.29
2017-08-10T18:49:13.063Z,17.29
2017-08-10T18:51:40.487Z,17.30
2017-08-10T18:54:07.887Z,17.35
2017-08-10T18:56:35.291Z,17.37
2017-08-10T18:59:02.698Z,17.34
2017-08-10T19:01:30.103Z,17.36
2017-08-10T19:03:57.511Z,17.37
2017-08-10T19:06:24.918Z,17.39
2017-08-10T19:08:52.315Z,17.40
2017-08-10T19:11:19.716Z,17.43
2017-08-10T19:13:47.130Z,17.39
2017-08-10T19:16:14.538Z,17.39
2017-08-10T19:18:41.935Z,17.33
2017-08-10T19:21:09.355Z,17.36
2017-08-10T19:23:36.760Z,17.35
2017-08-10T19:26:04.163Z,17.35
2017-08-10T19:28:31.579Z,17.37
2017-08-10T19:30:58.975Z,17.36
2017-08-10T19:33:26.379Z,17.37
2017-08-10T19:35:53.798Z,17.37
2017-08-10T19:38:21.198Z,17.36
2017-08-10T19:40:48.599Z,17.35
2017-08-10T19:43:16.025Z,17.38
2017-08-10T19:45:43.424Z,17.39
2017-08-10T19:48:10.827Z,17.38
2017-08-10T19:50:38.239Z,17.39
2017-08-10T19:53:05.642Z,17.37
2017-08-10T19:55:33.038Z,17.38
2017-08-10T19:58:00.454Z,17.43
2017-08-10T20:00:27.851Z,17.46
2017-08-10T20:02:55.263Z,17.44
2017-08-10T20:05:22.680Z,17.46
2017-08-10T20:07:50.080Z,17.48
2017-08-10T20:10:17.480Z,17.49
2017-08-10T20:12:44.897Z,17.47
2017-08-10T20:15:12.299Z,17.52
2017-08-10T20:17:39.696Z,17.50
2017-08-10T20:20:07.136Z,17.55
2017-08-10T20:22:34.538Z,17.50
2017-08-10T20:25:01.935Z,17.49
2017-08-10T20:27:29.361Z,17.33
2017-08-10T20:29:56.751Z,17.20
2017-08-10T20:32:24.150Z,17.21
2017-08-10T20:34:51.563Z,17.22
2017-08-10T20:37:18.973Z,17.31
2017-08-10T20:39:46.375Z,17.37
2017-08-10T20:42:13.791Z,17.39
2017-08-10T20:44:41.186Z,17.36
2017-08-10T20:47:08.591Z,17.31
2017-08-10T20:49:36.021Z,17.34
2017-08-10T20:52:03.413Z,17.33
2017-08-10T20:54:30.816Z,17.34
2017-08-10T20:56:58.232Z,17.30
2017-08-10T20:59:25.626Z,17.32
2017-08-10T21:01:53.031Z,17.35
2017-08-10T21:04:20.442Z,17.41
2017-08-10T21:06:47.854Z,17.41
2017-08-10T21:09:15.260Z,17.35
2017-08-10T21:11:42.670Z,17.26
2017-08-10T21:14:10.071Z,17.32
2017-08-10T21:16:37.470Z,17.35
2017-08-10T21:19:04.894Z,17.20
2017-08-10T21:21:32.291Z,17.23
2017-08-10T21:23:59.696Z,17.26
2017-08-10T21:26:27.103Z,17.21
2017-08-10T21:28:54.503Z,17.23
2017-08-10T21:31:21.903Z,17.13
2017-08-10T21:33:49.322Z,17.10
2017-08-10T21:36:16.732Z,17.08
2017-08-10T21:38:44.127Z,17.00
2017-08-10T21:41:11.539Z,17.08
2017-08-10T21:43:38.939Z,17.03
2017-08-10T21:46:06.340Z,17.01
2017-08-10T21:48:33.753Z,16.99
2017-08-10T21:51:01.151Z,17.02
2017-08-10T21:53:28.547Z,17.08
2017-08-10T21:55:55.967Z,17.09
2017-08-10T21:58:23.367Z,17.06
2017-08-10T22:00:50.784Z,17.03
2017-08-10T22:03:18.190Z,17.09
2017-08-10T22:05:45.586Z,17.16
2017-08-10T22:08:12.988Z,17.11
2017-08-10T22:10:40.404Z,17.09
2017-08-10T22:13:07.799Z,17.02
2017-08-10T22:15:35.195Z,16.98
2017-08-10T22:18:02.759Z,16.98
2017-08-10T22:20:30.155Z,17.03
2017-08-10T22:22:57.551Z,16.91
2017-08-10T22:25:24.971Z,16.90
2017-08-10T22:27:52.372Z,16.87
2017-08-10T22:30:19.779Z,16.75
2017-08-10T22:32:47.327Z,16.79
2017-08-10T22:35:14.748Z,16.63
2017-08-10T22:37:42.155Z,16.68
2017-08-10T22:40:09.571Z,16.76
2017-08-10T22:42:36.972Z,16.64
2017-08-10T22:45:04.392Z,16.63
2017-08-10T22:47:31.799Z,16.63
2017-08-10T22:49:59.216Z,16.66
2017-08-10T22:52:26.623Z,16.60
2017-08-10T22:54:54.027Z,16.68
2017-08-10T22:57:21.430Z,16.71
2017-08-10T22:59:48.831Z,16.72
2017-08-10T23:02:16.255Z,16.72
2017-08-10T23:04:43.655Z,16.51
2017-08-10T23:07:11.061Z,16.59
2017-08-10T23:09:38.472Z,16.67
2017-08-10T23:12:05.875Z,16.70
2017-08-10T23:14:33.280Z,16.78
2017-08-10T23:17:00.694Z,16.85
2017-08-10T23:19:28.102Z,16.81
2017-08-10T23:21:55.499Z,16.79
2017-08-10T23:24:22.915Z,16.87
2017-08-10T23:26:50.320Z,16.90
2017-08-10T23:29:17.724Z,16.96
2017-08-10T23:31:45.135Z,17.02
2017-08-10T23:34:12.538Z,17.09
2017-08-10T23:36:39.944Z,17.14
2017-08-10T23:39:07.351Z,17.15
2017-08-10T23:41:34.752Z,17.16
2017-08-10T23:44:02.158Z,17.19
2017-08-10T23:46:29.582Z,17.22
2017-08-10T23:48:56.984Z,17.28
2017-08-10T23:51:24.379Z,17.33
2017-08-10T23:53:51.796Z,17.32
2017-08-10T23:56:19.198Z,17.30
2017-08-10T23:58:46.595Z,17.31
